createdAt,value
2022-11-24T00:01:26.192Z,99440.25
2022-11-24T00:04:05.177Z,99445.52
2022-11-24T00:06:34.886Z,99449.87
2022-11-24T00:09:04.258Z,99449.23
2022-11-24T00:11:33.989Z,99441.38
2022-11-24T00:14:02.637Z,99444.05
2022-11-24T00:16:35.444Z,99446.14
2022-11-24T00:19:06.142Z,99449.05
2022-11-24T00:21:33.797Z,99446.38
2022-11-24T00:24:02.252Z,99449.52
2022-11-24T00:26:32.354Z,99454.32
2022-11-24T00:29:02.303Z,99455.39
2022-11-24T00:31:31.951Z,99453.75
2022-11-24T00:34:01.766Z,99451.86
2022-11-24T00:36:31.302Z,99451.32
2022-11-24T00:39:01.374Z,99453.77
2022-11-24T00:41:29.633Z,99452.70
2022-11-24T00:43:58.312Z,99450.28
2022-11-24T00:46:27.127Z,99450.08
2022-11-24T00:48:55.564Z,99453.60
2022-11-24T00:51:27.107Z,99456.16
2022-11-24T00:53:56.350Z,99452.56
2022-11-24T00:56:25.015Z,99455.23
2022-11-24T00:58:52.827Z,99460.73
2022-11-24T01:01:26.234Z,99458.52
2022-11-24T01:03:57.325Z,99454.34
2022-11-24T01:06:26.265Z,99462.86
2022-11-24T01:08:54.865Z,99467.59
2022-11-24T01:11:25.617Z,99467.92
2022-11-24T01:13:57.713Z,99470.67
2022-11-24T01:16:31.612Z,99470.62
2022-11-24T01:18:59.481Z,99469.73
2022-11-24T01:21:27.281Z,99468.80
2022-11-24T01:23:54.979Z,99468.64
2022-11-24T01:26:23.065Z,99467.40
2022-11-24T01:28:58.258Z,99466.99
2022-11-24T01:31:26.974Z,99469.84
2022-11-24T01:33:55.189Z,99469.04
2022-11-24T01:36:22.973Z,99468.23
2022-11-24T01:38:50.900Z,99469.40
2022-11-24T01:41:21.404Z,99469.73
2022-11-24T01:43:50.247Z,99469.81
2022-11-24T01:46:36.917Z,99474.01
2022-11-24T01:49:08.073Z,99472.94
2022-11-24T01:51:45.361Z,99469.33
2022-11-24T01:54:16.804Z,99463.56
2022-11-24T01:56:47.158Z,99466.80
2022-11-24T01:59:17.936Z,99466.14
2022-11-24T02:01:47.835Z,99468.60
2022-11-24T02:04:18.445Z,99469.45
2022-11-24T02:06:46.513Z,99469.33
2022-11-24T02:09:44.704Z,99471.55
2022-11-24T02:12:12.545Z,99472.81
2022-11-24T02:14:42.240Z,99473.41
2022-11-24T02:17:10.382Z,99474.63
2022-11-24T02:19:40.823Z,99474.18
2022-11-24T02:22:15.479Z,99475.10
2022-11-24T02:25:11.920Z,99471.80
2022-11-24T02:27:39.642Z,99468.91
2022-11-24T02:30:40.649Z,99469.89
2022-11-24T02:33:10.349Z,99467.11
2022-11-24T02:35:38.037Z,99468.27
2022-11-24T02:38:05.759Z,99465.73
2022-11-24T02:40:33.507Z,99464.64
2022-11-24T02:43:07.970Z,99467.69
2022-11-24T02:45:35.774Z,99472.96
2022-11-24T02:48:03.556Z,99480.15
2022-11-24T02:50:31.251Z,99480.99
2022-11-24T02:52:58.901Z,99484.05
2022-11-24T02:55:26.813Z,99483.80
2022-11-24T02:57:54.518Z,99484.13
2022-11-24T03:00:22.728Z,99486.77
2022-11-24T03:02:50.591Z,99485.38
2022-11-24T03:05:18.666Z,99486.02
2022-11-24T03:07:46.502Z,99491.90
2022-11-24T03:10:14.286Z,99487.36
2022-11-24T03:12:42.163Z,99483.77
2022-11-24T03:15:10.625Z,99482.65
2022-11-24T03:17:38.265Z,99487.54
2022-11-24T03:20:06.685Z,99486.23
2022-11-24T03:22:34.406Z,99488.42
2022-11-24T03:25:02.179Z,99484.20
2022-11-24T03:27:31.030Z,99485.59
2022-11-24T03:29:59.059Z,99487.91
2022-11-24T03:32:26.713Z,99485.45
2022-11-24T03:34:54.500Z,99490.43
2022-11-24T03:37:22.678Z,99491.66
2022-11-24T03:39:50.560Z,99495.73
2022-11-24T03:42:18.240Z,99494.41
2022-11-24T03:44:45.921Z,99493.48
2022-11-24T03:47:13.745Z,99493.20
2022-11-24T03:49:41.647Z,99491.66
2022-11-24T03:52:09.790Z,99487.44
2022-11-24T03:54:37.466Z,99490.72
2022-11-24T03:57:05.568Z,99488.34
2022-11-24T03:59:33.236Z,99493.42
2022-11-24T04:02:00.962Z,99495.00
2022-11-24T04:04:28.772Z,99495.02
2022-11-24T04:06:56.702Z,99496.27
2022-11-24T04:09:24.386Z,99496.22
2022-11-24T04:12:15.001Z,99497.83
2022-11-24T04:14:42.634Z,99499.02
2022-11-24T04:17:10.506Z,99500.06
2022-11-24T04:19:38.291Z,99504.39
2022-11-24T04:22:06.071Z,99501.98
2022-11-24T04:24:34.093Z,99501.48
2022-11-24T04:27:02.174Z,99502.86
2022-11-24T04:29:30.227Z,99502.16
2022-11-24T04:31:57.965Z,99506.33
2022-11-24T04:34:25.716Z,99511.76
2022-11-24T04:36:53.464Z,99514.36
2022-11-24T04:39:25.154Z,99519.93
2022-11-24T04:41:54.911Z,99520.43
2022-11-24T04:44:22.662Z,99520.62
2022-11-24T04:46:50.467Z,99526.83
2022-11-24T04:49:18.560Z,99529.30
2022-11-24T04:51:46.478Z,99529.52
2022-11-24T04:54:14.496Z,99534.27
2022-11-24T04:56:43.856Z,99534.16
2022-11-24T04:59:15.395Z,99540.40
2022-11-24T05:01:47.003Z,99547.05
2022-11-24T05:04:15.887Z,99548.45
2022-11-24T05:06:43.833Z,99552.46
2022-11-24T05:09:16.082Z,99555.00
2022-11-24T05:11:43.874Z,99557.12
2022-11-24T05:14:11.653Z,99558.37
2022-11-24T05:16:39.590Z,99558.03
2022-11-24T05:19:07.716Z,99559.35
2022-11-24T05:21:35.499Z,99565.40
2022-11-24T05:24:03.561Z,99567.77
2022-11-24T05:26:31.346Z,99568.39
2022-11-24T05:28:59.141Z,99563.09
2022-11-24T05:31:27.128Z,99569.61
2022-11-24T05:33:54.966Z,99573.05
2022-11-24T05:36:41.605Z,99577.48
2022-11-24T05:39:09.580Z,99579.45
2022-11-24T05:41:37.400Z,99587.58
2022-11-24T05:44:05.382Z,99591.96
2022-11-24T05:46:33.259Z,99595.34
2022-11-24T05:49:01.171Z,99595.30
2022-11-24T05:51:30.600Z,99594.58
2022-11-24T05:53:58.307Z,99596.84
2022-11-24T05:56:26.048Z,99592.64
2022-11-24T05:58:53.800Z,99594.95
2022-11-24T06:01:21.693Z,99592.34
2022-11-24T06:03:49.428Z,99594.04
2022-11-24T06:06:17.298Z,99600.88
2022-11-24T06:08:45.020Z,99604.88
2022-11-24T06:11:18.834Z,99608.60
2022-11-24T06:13:48.715Z,99616.12
2022-11-24T06:16:16.843Z,99620.85
2022-11-24T06:18:44.689Z,99629.34
2022-11-24T06:21:12.541Z,99635.27
2022-11-24T06:23:40.748Z,99642.56
2022-11-24T06:26:09.369Z,99644.52
2022-11-24T06:28:37.498Z,99651.83
2022-11-24T06:31:06.009Z,99658.55
2022-11-24T06:33:36.344Z,99660.27
2022-11-24T06:36:06.486Z,99666.70
2022-11-24T06:38:35.949Z,99670.10
2022-11-24T06:41:09.808Z,99676.71
2022-11-24T06:43:37.781Z,99674.39
2022-11-24T06:46:05.946Z,99682.66
2022-11-24T06:48:34.226Z,99682.27
2022-11-24T06:51:04.474Z,99686.00
2022-11-24T06:53:39.737Z,99685.08
2022-11-24T06:56:15.750Z,99689.69
2022-11-24T06:58:47.322Z,99687.45
2022-11-24T07:01:22.609Z,99679.33
2022-11-24T07:03:52.059Z,99682.16
2022-11-24T07:06:21.865Z,99684.20
2022-11-24T07:08:49.875Z,99685.42
2022-11-24T07:11:20.985Z,99689.17
2022-11-24T07:13:49.183Z,99698.27
2022-11-24T07:16:22.405Z,99703.13
2022-11-24T07:18:52.217Z,99708.98
2022-11-24T07:21:21.524Z,99713.16
2022-11-24T07:23:54.077Z,99711.42
2022-11-24T07:26:22.793Z,99714.27
2022-11-24T07:28:51.170Z,99716.31
2022-11-24T07:31:21.660Z,99714.80
2022-11-24T07:33:53.672Z,99711.10
2022-11-24T07:36:22.478Z,99711.28
2022-11-24T07:38:50.748Z,99713.62
2022-11-24T07:41:19.747Z,99714.31
2022-11-24T07:43:48.352Z,99716.05
2022-11-24T07:46:17.709Z,99715.63
2022-11-24T07:48:46.390Z,99712.66
2022-11-24T07:51:14.781Z,99711.17
2022-11-24T07:53:43.265Z,99710.90
2022-11-24T07:56:11.147Z,99712.46
2022-11-24T07:58:38.953Z,99712.96
2022-11-24T08:01:15.655Z,99713.09
2022-11-24T08:03:45.204Z,99718.05
2022-11-24T08:06:24.999Z,99718.74
2022-11-24T08:08:53.371Z,99722.70
2022-11-24T08:11:21.257Z,99723.66
2022-11-24T08:13:49.080Z,99725.85
2022-11-24T08:16:18.230Z,99724.04
2022-11-24T08:18:50.943Z,99732.17
2022-11-24T08:21:19.477Z,99733.77
2022-11-24T08:23:47.481Z,99736.70
2022-11-24T08:26:18.798Z,99738.38
2022-11-24T08:28:47.425Z,99741.52
2022-11-24T08:31:18.777Z,99747.57
2022-11-24T08:33:47.020Z,99751.07
2022-11-24T08:36:18.062Z,99754.26
2022-11-24T08:38:46.300Z,99754.31
2022-11-24T08:41:15.990Z,99751.85
2022-11-24T08:43:43.889Z,99757.73
2022-11-24T08:46:14.144Z,99751.83
2022-11-24T08:48:41.965Z,99753.39
2022-11-24T08:51:12.302Z,99753.89
2022-11-24T08:53:40.443Z,99757.46
2022-11-24T08:56:09.329Z,99754.40
2022-11-24T08:58:37.698Z,99755.81
2022-11-24T09:01:07.626Z,99755.36
2022-11-24T09:03:35.758Z,99756.94
2022-11-24T09:06:04.068Z,99762.33
2022-11-24T09:08:33.205Z,99763.95
2022-11-24T09:11:02.606Z,99767.39
2022-11-24T09:13:30.494Z,99767.22
2022-11-24T09:16:06.833Z,99769.00
2022-11-24T09:18:39.849Z,99769.20
2022-11-24T09:21:08.213Z,99770.05
2022-11-24T09:23:36.611Z,99771.66
2022-11-24T09:26:06.395Z,99767.18
2022-11-24T09:28:34.638Z,99761.82
2022-11-24T09:31:04.661Z,99765.56
2022-11-24T09:33:33.575Z,99767.20
2022-11-24T09:36:01.538Z,99770.01
2022-11-24T09:38:29.736Z,99770.37
2022-11-24T09:41:15.157Z,99768.56
2022-11-24T09:43:56.827Z,99771.70
2022-11-24T09:46:33.827Z,99769.42
2022-11-24T09:49:03.597Z,99767.20
2022-11-24T09:51:32.402Z,99769.11
2022-11-24T09:54:09.232Z,99764.30
2022-11-24T09:56:38.602Z,99768.09
2022-11-24T09:59:18.765Z,99761.48
2022-11-24T10:01:48.092Z,99765.78
2022-11-24T10:04:28.602Z,99770.95
2022-11-24T10:06:56.566Z,99771.16
2022-11-24T10:09:45.405Z,99773.29
2022-11-24T10:12:30.855Z,99771.96
2022-11-24T10:15:25.842Z,99770.73
2022-11-24T10:18:16.733Z,99772.23
2022-11-24T10:20:54.926Z,99777.33
2022-11-24T10:23:56.698Z,99778.69
2022-11-24T10:26:38.699Z,99776.17
2022-11-24T10:29:14.131Z,99778.52
2022-11-24T10:31:43.341Z,99780.74
2022-11-24T10:34:27.846Z,99782.84
2022-11-24T10:37:23.851Z,99785.30
2022-11-24T10:40:04.119Z,99784.85
2022-11-24T10:42:37.245Z,99786.49
2022-11-24T10:45:31.700Z,99783.91
2022-11-24T10:47:59.495Z,99785.40
2022-11-24T10:50:31.441Z,99783.77
2022-11-24T10:53:08.588Z,99780.01
2022-11-24T10:55:54.713Z,99782.53
2022-11-24T10:58:36.060Z,99779.12
2022-11-24T11:01:15.101Z,99778.95
2022-11-24T11:03:48.997Z,99778.29
2022-11-24T11:06:30.559Z,99779.41
2022-11-24T11:09:07.513Z,99782.05
2022-11-24T11:11:36.974Z,99786.30
2022-11-24T11:14:06.628Z,99778.95
2022-11-24T11:20:58.593Z,99787.48
2022-11-24T11:23:31.788Z,99786.05
2022-11-24T11:26:22.605Z,99783.70
2022-11-24T11:34:50.672Z,99778.77
2022-11-24T11:37:20.314Z,99775.55
2022-11-24T11:39:50.682Z,99777.52
2022-11-24T11:43:03.786Z,99776.70
2022-11-24T11:45:29.975Z,99771.03
2022-11-24T11:48:01.054Z,99774.80
2022-11-24T11:51:14.878Z,99778.19
2022-11-24T11:53:36.996Z,99777.44
2022-11-24T11:56:27.057Z,99778.55
2022-11-24T11:59:23.046Z,99781.90
2022-11-24T12:02:09.531Z,99781.63
2022-11-24T12:04:53.698Z,99784.45
2022-11-24T12:07:36.780Z,99781.08
2022-11-24T12:10:10.361Z,99783.42
2022-11-24T12:12:47.784Z,99782.86
2022-11-24T12:15:34.098Z,99780.54
2022-11-24T12:18:40.358Z,99777.00
2022-11-24T12:21:27.060Z,99776.74
2022-11-24T12:23:58.040Z,99778.33
2022-11-24T12:26:58.265Z,99782.79
2022-11-24T12:29:48.166Z,99783.59
2022-11-24T12:32:41.172Z,99789.02
2022-11-24T12:35:20.559Z,99788.80
2022-11-24T12:38:25.351Z,99789.58
2022-11-24T12:41:39.750Z,99794.70
2022-11-24T12:43:56.563Z,99796.13
2022-11-24T12:47:03.751Z,99796.86
2022-11-24T12:49:45.700Z,99799.85
2022-11-24T12:52:28.975Z,99798.65
2022-11-24T12:54:56.968Z,99804.16
2022-11-24T12:57:38.838Z,99805.94
2022-11-24T13:00:24.111Z,99802.66
2022-11-24T13:03:00.941Z,99802.27
2022-11-24T13:05:46.083Z,99797.86
2022-11-24T13:08:14.414Z,99797.31
2022-11-24T13:10:58.368Z,99800.67
2022-11-24T13:13:30.273Z,99799.64
2022-11-24T13:16:35.034Z,99804.91
2022-11-24T13:18:57.273Z,99803.05
2022-11-24T13:21:31.315Z,99803.76
2022-11-24T13:24:02.400Z,99805.29
2022-11-24T13:26:33.581Z,99809.69
2022-11-24T13:29:23.847Z,99814.58
2022-11-24T13:31:57.106Z,99812.02
2022-11-24T13:34:43.172Z,99813.45
2022-11-24T13:37:28.881Z,99816.64
2022-11-24T13:40:13.141Z,99812.73
2022-11-24T13:42:57.299Z,99817.59
2022-11-24T13:45:41.534Z,99818.05
2022-11-24T13:48:22.355Z,99821.32
2022-11-24T13:50:50.718Z,99820.42
2022-11-24T13:53:18.945Z,99824.42
2022-11-24T13:56:00.737Z,99823.73
2022-11-24T13:58:36.489Z,99827.21
2022-11-24T14:01:11.412Z,99826.60
2022-11-24T14:04:43.259Z,99823.23
2022-11-24T14:07:08.716Z,99824.82
2022-11-24T14:09:42.261Z,99826.55
2022-11-24T14:12:17.243Z,99834.15
2022-11-24T14:14:47.980Z,99838.80
2022-11-24T14:17:15.661Z,99843.40
2022-11-24T14:19:48.755Z,99846.44
2022-11-24T14:22:17.176Z,99848.05
2022-11-24T14:24:47.035Z,99851.87
2022-11-24T14:27:17.138Z,99854.81
2022-11-24T14:29:59.802Z,99855.17
2022-11-24T14:32:27.825Z,99858.29
2022-11-24T14:34:56.998Z,99858.91
2022-11-24T14:37:24.947Z,99863.91
2022-11-24T14:39:52.812Z,99862.30
2022-11-24T14:42:23.139Z,99865.16
2022-11-24T14:44:56.755Z,99869.29
2022-11-24T14:47:31.394Z,99868.98
2022-11-24T14:50:20.103Z,99867.56
2022-11-24T14:52:58.200Z,99867.75
2022-11-24T14:55:29.379Z,99869.48
2022-11-24T14:57:58.565Z,99867.51
2022-11-24T15:00:31.656Z,99869.83
2022-11-24T15:03:02.193Z,99870.17
2022-11-24T15:05:58.392Z,99869.17
2022-11-24T15:08:27.964Z,99873.12
2022-11-24T15:11:00.867Z,99874.98
2022-11-24T15:13:31.086Z,99882.17
2022-11-24T15:16:03.148Z,99884.11
2022-11-24T15:18:33.706Z,99886.36
2022-11-24T15:21:01.735Z,99892.42
2022-11-24T15:23:33.449Z,99894.83
2022-11-24T15:26:01.372Z,99893.50
2022-11-24T15:28:32.677Z,99901.59
2022-11-24T15:31:06.416Z,99900.66
2022-11-24T15:33:34.237Z,99901.00
2022-11-24T15:36:02.310Z,99907.13
2022-11-24T15:38:30.081Z,99913.89
2022-11-24T15:40:59.311Z,99913.04
2022-11-24T15:43:32.359Z,99916.98
2022-11-24T15:46:01.519Z,99912.77
2022-11-24T15:48:29.659Z,99912.40
2022-11-24T15:50:58.959Z,99912.38
2022-11-24T15:53:45.724Z,99916.46
2022-11-24T15:56:33.083Z,99913.02
2022-11-24T15:59:01.874Z,99921.02
2022-11-24T16:01:31.611Z,99920.38
2022-11-24T16:04:00.167Z,99927.78
2022-11-24T16:06:27.972Z,99927.56
2022-11-24T16:08:55.818Z,99932.23
2022-11-24T16:11:23.742Z,99931.17
2022-11-24T16:13:53.948Z,99931.50
2022-11-24T16:16:23.377Z,99934.14
2022-11-24T16:18:51.206Z,99929.84
2022-11-24T16:21:18.951Z,99926.96
2022-11-24T16:23:47.885Z,99931.68
2022-11-24T16:26:15.747Z,99934.79
2022-11-24T16:28:45.317Z,99939.51
2022-11-24T16:31:15.795Z,99939.02
2022-11-24T16:33:47.101Z,99945.84
2022-11-24T16:36:15.239Z,99943.21
2022-11-24T16:38:43.189Z,99946.41
2022-11-24T16:41:11.562Z,99946.87
2022-11-24T16:43:39.508Z,99951.17
2022-11-24T16:46:23.726Z,99953.35
2022-11-24T16:48:55.196Z,99956.98
2022-11-24T16:51:23.882Z,99965.29
2022-11-24T16:53:59.884Z,99965.23
2022-11-24T16:56:28.922Z,99971.15
2022-11-24T16:58:57.087Z,99968.36
2022-11-24T17:01:26.132Z,99970.81
2022-11-24T17:03:54.041Z,99973.60
2022-11-24T17:06:21.983Z,99974.81
2022-11-24T17:08:50.027Z,99974.42
2022-11-24T17:11:20.699Z,99977.69
2022-11-24T17:13:49.236Z,99985.29
2022-11-24T17:16:19.847Z,99987.91
2022-11-24T17:18:49.435Z,99992.95
2022-11-24T17:21:22.907Z,99991.71
2022-11-24T17:23:55.334Z,99996.05
2022-11-24T17:26:23.870Z,99998.42
2022-11-24T17:28:52.022Z,100000.48
2022-11-24T17:31:27.611Z,100003.55
2022-11-24T17:33:57.216Z,100008.85
2022-11-24T17:36:26.385Z,100006.81
2022-11-24T17:38:54.482Z,100006.58
2022-11-24T17:41:22.651Z,100009.79
2022-11-24T17:43:51.972Z,100009.64
2022-11-24T17:46:19.924Z,100012.27
2022-11-24T17:48:48.032Z,100016.75
2022-11-24T17:51:19.234Z,100017.73
2022-11-24T17:53:49.463Z,100018.58
2022-11-24T17:56:25.529Z,100018.80
2022-11-24T17:59:00.027Z,100020.16
2022-11-24T18:01:30.190Z,100026.84
2022-11-24T18:04:01.254Z,100027.36
2022-11-24T18:06:29.299Z,100030.97
2022-11-24T18:08:58.032Z,100030.42
2022-11-24T18:11:31.333Z,100030.23
2022-11-24T18:14:03.041Z,100029.91
2022-11-24T18:16:32.520Z,100034.02
2022-11-24T18:19:11.361Z,100033.86
2022-11-24T18:21:41.279Z,100036.41
2022-11-24T18:24:10.262Z,100040.73
2022-11-24T18:26:39.366Z,100043.49
2022-11-24T18:29:07.823Z,100042.76
2022-11-24T18:31:36.321Z,100044.45
2022-11-24T18:34:05.643Z,100048.70
2022-11-24T18:36:33.755Z,100046.91
2022-11-24T18:39:03.539Z,100049.84
2022-11-24T18:41:32.019Z,100050.11
2022-11-24T18:44:03.020Z,100046.80
2022-11-24T18:46:30.816Z,100046.77
2022-11-24T18:48:59.204Z,100044.38
2022-11-24T18:51:27.291Z,100038.11
2022-11-24T18:53:55.456Z,100031.67
2022-11-24T18:56:23.933Z,100028.77
2022-11-24T18:58:56.830Z,100032.58
2022-11-24T19:01:27.327Z,100032.02
2022-11-24T19:04:00.671Z,100033.74
2022-11-24T19:06:32.628Z,100036.96
2022-11-24T19:09:10.578Z,100041.89
2022-11-24T19:11:40.518Z,100043.11
2022-11-24T19:14:11.012Z,100047.94
2022-11-24T19:16:39.466Z,100051.67
2022-11-24T19:19:07.866Z,100056.44
2022-11-24T19:21:42.482Z,100051.21
2022-11-24T19:24:11.144Z,100054.84
2022-11-24T19:26:39.847Z,100056.98
2022-11-24T19:29:08.381Z,100055.70
2022-11-24T19:31:39.350Z,100061.50
2022-11-24T19:34:08.078Z,100062.44
2022-11-24T19:36:36.462Z,100063.77
2022-11-24T19:39:05.257Z,100065.63
2022-11-24T19:41:34.223Z,100065.91
2022-11-24T19:44:02.012Z,100069.45
2022-11-24T19:46:30.193Z,100075.35
2022-11-24T19:49:01.789Z,100078.28
2022-11-24T19:51:31.612Z,100076.60
2022-11-24T19:54:00.352Z,100079.29
2022-11-24T19:56:30.749Z,100079.01
2022-11-24T19:58:58.712Z,100083.98
2022-11-24T20:01:28.817Z,100086.38
2022-11-24T20:04:01.302Z,100084.67
2022-11-24T20:06:31.907Z,100083.20
2022-11-24T20:09:00.784Z,100088.17
2022-11-24T20:11:29.335Z,100088.70
2022-11-24T20:13:57.925Z,100090.63
2022-11-24T20:16:31.117Z,100093.91
2022-11-24T20:19:07.533Z,100103.35
2022-11-24T20:21:36.969Z,100102.90
2022-11-24T20:24:12.380Z,100110.95
2022-11-24T20:26:46.674Z,100112.34
2022-11-24T20:29:15.443Z,100116.06
2022-11-24T20:31:48.952Z,100116.08
2022-11-24T20:34:17.742Z,100120.39
2022-11-24T20:36:46.981Z,100122.23
2022-11-24T20:39:19.597Z,100125.05
2022-11-24T20:41:47.472Z,100127.84
2022-11-24T20:44:18.317Z,100126.92
2022-11-24T20:46:46.643Z,100126.77
2022-11-24T20:49:17.199Z,100125.49
2022-11-24T20:51:47.758Z,100129.59
2022-11-24T20:54:17.660Z,100135.16
2022-11-24T20:56:46.559Z,100138.27
2022-11-24T20:59:21.445Z,100144.86
2022-11-24T21:01:50.350Z,100147.77
2022-11-24T21:04:21.450Z,100152.97
2022-11-24T21:06:49.936Z,100146.45
2022-11-24T21:09:18.456Z,100147.39
2022-11-24T21:11:47.259Z,100148.69
2022-11-24T21:14:15.619Z,100151.89
2022-11-24T21:16:43.979Z,100151.17
2022-11-24T21:19:14.238Z,100153.17
2022-11-24T21:21:43.275Z,100154.65
2022-11-24T21:24:16.314Z,100158.16
2022-11-24T21:26:47.540Z,100157.95
2022-11-24T21:29:18.839Z,100158.40
2022-11-24T21:31:46.802Z,100160.43
2022-11-24T21:34:16.640Z,100156.75
2022-11-24T21:36:45.141Z,100152.58
2022-11-24T21:39:15.869Z,100153.34
2022-11-24T21:41:43.780Z,100154.73
2022-11-24T21:44:13.382Z,100152.95
2022-11-24T21:46:46.256Z,100153.09
2022-11-24T21:49:17.283Z,100156.36
2022-11-24T21:51:45.006Z,100158.98
2022-11-24T21:54:12.843Z,100162.93
2022-11-24T21:56:40.624Z,100164.61
2022-11-24T21:59:08.556Z,100163.90
2022-11-24T22:01:36.342Z,100167.25
2022-11-24T22:04:04.690Z,100163.59
2022-11-24T22:06:33.266Z,100159.02
2022-11-24T22:09:01.231Z,100160.45
2022-11-24T22:11:29.014Z,100162.61
2022-11-24T22:13:56.740Z,100161.33
2022-11-24T22:16:25.558Z,100165.00
2022-11-24T22:18:53.429Z,100161.34
2022-11-24T22:21:30.646Z,100162.63
2022-11-24T22:23:58.796Z,100162.63
2022-11-24T22:26:27.598Z,100162.24
2022-11-24T22:28:56.637Z,100166.09
2022-11-24T22:31:26.495Z,100169.67
2022-11-24T22:33:55.453Z,100171.33
2022-11-24T22:36:25.082Z,100172.81
2022-11-24T22:39:03.163Z,100178.61
2022-11-24T22:41:34.979Z,100180.02
2022-11-24T22:44:03.001Z,100177.86
2022-11-24T22:46:31.910Z,100180.71
2022-11-24T22:49:00.910Z,100178.79
2022-11-24T22:51:33.469Z,100186.80
2022-11-24T22:54:02.945Z,100189.52
2022-11-24T22:56:32.547Z,100189.55
2022-11-24T22:59:01.517Z,100185.61
2022-11-24T23:01:30.584Z,100185.22
2022-11-24T23:03:58.388Z,100186.48
2022-11-24T23:06:28.765Z,100182.55
2022-11-24T23:08:57.955Z,100184.08
2022-11-24T23:11:34.862Z,100180.65
2022-11-24T23:14:04.000Z,100182.64
2022-11-24T23:16:31.795Z,100177.80
2022-11-24T23:18:59.774Z,100175.57
2022-11-24T23:21:29.321Z,100177.52
2022-11-24T23:23:58.900Z,100179.40
2022-11-24T23:26:29.920Z,100183.33
2022-11-24T23:28:57.607Z,100185.92
2022-11-24T23:31:30.269Z,100187.73
2022-11-24T23:33:59.722Z,100193.05
2022-11-24T23:36:28.238Z,100195.85
2022-11-24T23:38:56.362Z,100199.73
2022-11-24T23:41:25.358Z,100198.83
2022-11-24T23:43:53.203Z,100197.99
2022-11-24T23:46:23.013Z,100199.84
2022-11-24T23:48:52.902Z,100200.23
2022-11-24T23:51:29.435Z,100199.95
2022-11-24T23:53:58.121Z,100196.81
2022-11-24T23:56:32.307Z,100202.02
2022-11-24T23:59:00.975Z,100200.05
